sensor_id;sensor_type;location;lat;lon;timestamp;pressure;altitude;pressure_sealevel;temperature;humidity
56632;BME280;42503;39.928;-75.152;2023-06-26T00:04:19;100742.59;;;26.14;41.63
56632;BME280;42503;39.928;-75.152;2023-06-26T00:14:23;100723.31;;;26.12;42.30
56632;BME280;42503;39.928;-75.152;2023-06-26T00:24:24;100728.53;;;26.05;42.29
56632;BME280;42503;39.928;-75.152;2023-06-26T00:34:26;100719.97;;;26.10;42.10
56632;BME280;42503;39.928;-75.152;2023-06-26T00:44:27;100687.47;;;26.09;42.25
56632;BME280;42503;39.928;-75.152;2023-06-26T00:54:28;100687.47;;;26.09;41.92
56632;BME280;42503;39.928;-75.152;2023-06-26T01:04:33;100693.63;;;25.89;42.10
56632;BME280;42503;39.928;-75.152;2023-06-26T01:14:35;100725.72;;;26.05;41.86
56632;BME280;42503;39.928;-75.152;2023-06-26T01:24:38;100735.78;;;26.06;41.88
56632;BME280;42503;39.928;-75.152;2023-06-26T01:34:41;100754.41;;;26.02;41.57
56632;BME280;42503;39.928;-75.152;2023-06-26T01:44:45;100754.53;;;25.97;41.52
56632;BME280;42503;39.928;-75.152;2023-06-26T02:05:03;100791.66;;;26.02;41.41
56632;BME280;42503;39.928;-75.152;2023-06-26T02:15:05;100788.38;;;26.00;43.90
56632;BME280;42503;39.928;-75.152;2023-06-26T02:25:07;100812.25;;;26.20;45.47
56632;BME280;42503;39.928;-75.152;2023-06-26T02:35:09;100807.53;;;26.29;46.04
56632;BME280;42503;39.928;-75.152;2023-06-26T02:45:10;100776.81;;;26.24;46.62
56632;BME280;42503;39.928;-75.152;2023-06-26T02:55:11;100798.53;;;26.41;46.98
56632;BME280;42503;39.928;-75.152;2023-06-26T03:05:13;100785.22;;;26.47;47.16
56632;BME280;42503;39.928;-75.152;2023-06-26T03:15:14;100797.44;;;26.51;46.92
56632;BME280;42503;39.928;-75.152;2023-06-26T03:25:15;100788.88;;;26.56;47.05
56632;BME280;42503;39.928;-75.152;2023-06-26T03:35:19;100758.81;;;26.48;47.11
56632;BME280;42503;39.928;-75.152;2023-06-26T03:45:21;100779.69;;;26.64;47.33
56632;BME280;42503;39.928;-75.152;2023-06-26T03:55:22;100767.81;;;26.67;47.17
56632;BME280;42503;39.928;-75.152;2023-06-26T04:05:27;100764.03;;;26.72;47.18
56632;BME280;42503;39.928;-75.152;2023-06-26T04:15:28;100771.47;;;26.76;47.35
56632;BME280;42503;39.928;-75.152;2023-06-26T04:25:30;100741.91;;;26.79;47.41
56632;BME280;42503;39.928;-75.152;2023-06-26T04:35:31;100733.50;;;26.79;47.24
56632;BME280;42503;39.928;-75.152;2023-06-26T04:45:37;100748.53;;;26.83;47.18
56632;BME280;42503;39.928;-75.152;2023-06-26T04:55:38;100743.75;;;26.83;47.38
56632;BME280;42503;39.928;-75.152;2023-06-26T05:05:43;100758.16;;;26.91;47.35
56632;BME280;42503;39.928;-75.152;2023-06-26T05:15:45;100751.38;;;26.92;47.24
56632;BME280;42503;39.928;-75.152;2023-06-26T05:25:47;100728.75;;;26.97;47.42
56632;BME280;42503;39.928;-75.152;2023-06-26T05:35:48;100705.63;;;27.00;47.40
56632;BME280;42503;39.928;-75.152;2023-06-26T05:45:52;100673.25;;;27.02;47.33
56632;BME280;42503;39.928;-75.152;2023-06-26T05:55:54;100671.78;;;27.05;47.30
56632;BME280;42503;39.928;-75.152;2023-06-26T06:05:55;100648.31;;;27.01;47.27
56632;BME280;42503;39.928;-75.152;2023-06-26T06:15:57;100643.03;;;27.08;47.20
56632;BME280;42503;39.928;-75.152;2023-06-26T06:25:58;100653.63;;;27.11;47.15
56632;BME280;42503;39.928;-75.152;2023-06-26T06:36:04;100644.91;;;27.13;47.29
56632;BME280;42503;39.928;-75.152;2023-06-26T06:46:05;100662.22;;;27.15;47.09
56632;BME280;42503;39.928;-75.152;2023-06-26T06:56:09;100668.66;;;27.15;47.10
56632;BME280;42503;39.928;-75.152;2023-06-26T07:06:11;100655.13;;;27.17;47.08
56632;BME280;42503;39.928;-75.152;2023-06-26T07:16:12;100645.56;;;27.18;47.13
56632;BME280;42503;39.928;-75.152;2023-06-26T07:26:18;100651.66;;;27.20;46.99
56632;BME280;42503;39.928;-75.152;2023-06-26T07:36:20;100646.03;;;27.20;47.12
56632;BME280;42503;39.928;-75.152;2023-06-26T07:46:21;100630.81;;;27.21;47.08
56632;BME280;42503;39.928;-75.152;2023-06-26T07:56:23;100616.13;;;27.24;47.16
56632;BME280;42503;39.928;-75.152;2023-06-26T08:06:27;100603.72;;;27.25;47.02
56632;BME280;42503;39.928;-75.152;2023-06-26T08:16:28;100598.91;;;27.26;46.91
56632;BME280;42503;39.928;-75.152;2023-06-26T08:26:30;100564.91;;;27.10;47.15
56632;BME280;42503;39.928;-75.152;2023-06-26T08:36:31;100599.78;;;27.26;47.09
56632;BME280;42503;39.928;-75.152;2023-06-26T08:46:33;100599.09;;;27.29;47.22
56632;BME280;42503;39.928;-75.152;2023-06-26T08:56:44;100600.91;;;27.17;47.11
56632;BME280;42503;39.928;-75.152;2023-06-26T09:06:48;100623.22;;;27.30;47.23
56632;BME280;42503;39.928;-75.152;2023-06-26T09:16:49;100614.47;;;27.32;47.38
56632;BME280;42503;39.928;-75.152;2023-06-26T09:26:51;100624.53;;;27.33;47.36
56632;BME280;42503;39.928;-75.152;2023-06-26T09:36:53;100616.94;;;27.33;47.25
56632;BME280;42503;39.928;-75.152;2023-06-26T09:46:55;100620.75;;;27.29;47.35
56632;BME280;42503;39.928;-75.152;2023-06-26T09:57:09;100609.50;;;27.29;47.44
56632;BME280;42503;39.928;-75.152;2023-06-26T10:07:11;100598.09;;;27.25;47.46
56632;BME280;42503;39.928;-75.152;2023-06-26T10:17:16;100610.16;;;27.34;47.47
56632;BME280;42503;39.928;-75.152;2023-06-26T10:27:21;100609.84;;;27.36;47.31
56632;BME280;42503;39.928;-75.152;2023-06-26T10:37:49;100611.97;;;27.30;47.43
56632;BME280;42503;39.928;-75.152;2023-06-26T10:47:52;100621.91;;;27.36;47.46
56632;BME280;42503;39.928;-75.152;2023-06-26T10:57:55;100623.53;;;27.38;47.30
56632;BME280;42503;39.928;-75.152;2023-06-26T11:08:06;100625.88;;;27.35;47.18
56632;BME280;42503;39.928;-75.152;2023-06-26T11:18:07;100664.53;;;27.39;47.52
56632;BME280;42503;39.928;-75.152;2023-06-26T11:28:11;100652.28;;;27.34;47.29
56632;BME280;42503;39.928;-75.152;2023-06-26T11:38:13;100638.06;;;27.40;47.32
56632;BME280;42503;39.928;-75.152;2023-06-26T11:48:14;100626.00;;;27.39;47.47
56632;BME280;42503;39.928;-75.152;2023-06-26T11:58:15;100639.25;;;27.39;47.32
56632;BME280;42503;39.928;-75.152;2023-06-26T12:08:17;100615.13;;;27.20;47.52
56632;BME280;42503;39.928;-75.152;2023-06-26T12:18:18;100659.91;;;27.43;47.42
56632;BME280;42503;39.928;-75.152;2023-06-26T12:28:21;100641.75;;;27.40;47.48
56632;BME280;42503;39.928;-75.152;2023-06-26T12:38:23;100632.47;;;27.40;47.30
56632;BME280;42503;39.928;-75.152;2023-06-26T12:48:45;100628.50;;;27.41;47.56
56632;BME280;42503;39.928;-75.152;2023-06-26T12:58:48;100610.13;;;27.43;47.28
56632;BME280;42503;39.928;-75.152;2023-06-26T13:08:49;100611.47;;;27.46;47.37
56632;BME280;42503;39.928;-75.152;2023-06-26T13:18:51;100617.28;;;27.41;47.28
56632;BME280;42503;39.928;-75.152;2023-06-26T13:28:52;100631.16;;;27.46;47.54
56632;BME280;42503;39.928;-75.152;2023-06-26T13:38:53;100602.41;;;27.31;47.56
56632;BME280;42503;39.928;-75.152;2023-06-26T13:48:57;100612.28;;;27.46;47.42
56632;BME280;42503;39.928;-75.152;2023-06-26T13:58:59;100602.06;;;27.42;47.51
56632;BME280;42503;39.928;-75.152;2023-06-26T14:09:00;100599.88;;;27.47;47.45
56632;BME280;42503;39.928;-75.152;2023-06-26T14:19:01;100594.28;;;27.47;47.69
56632;BME280;42503;39.928;-75.152;2023-06-26T14:29:03;100574.13;;;27.45;47.49
56632;BME280;42503;39.928;-75.152;2023-06-26T14:39:04;100570.97;;;27.47;47.70
56632;BME280;42503;39.928;-75.152;2023-06-26T14:49:08;100569.78;;;27.48;47.63
56632;BME280;42503;39.928;-75.152;2023-06-26T14:59:14;100577.25;;;27.44;47.64
56632;BME280;42503;39.928;-75.152;2023-06-26T15:09:15;100571.13;;;27.50;47.89
56632;BME280;42503;39.928;-75.152;2023-06-26T15:19:17;100532.28;;;27.44;47.96
56632;BME280;42503;39.928;-75.152;2023-06-26T15:29:18;100534.25;;;27.52;48.27
56632;BME280;42503;39.928;-75.152;2023-06-26T15:39:19;100519.84;;;27.53;48.25
56632;BME280;42503;39.928;-75.152;2023-06-26T15:49:21;100502.16;;;27.53;48.43
56632;BME280;42503;39.928;-75.152;2023-06-26T15:59:22;100493.41;;;27.54;48.53
56632;BME280;42503;39.928;-75.152;2023-06-26T16:09:32;100491.91;;;27.57;48.70
56632;BME280;42503;39.928;-75.152;2023-06-26T16:19:34;100484.28;;;27.57;48.68
56632;BME280;42503;39.928;-75.152;2023-06-26T16:29:35;100476.69;;;27.58;48.74
56632;BME280;42503;39.928;-75.152;2023-06-26T16:39:36;100481.16;;;27.59;49.23
56632;BME280;42503;39.928;-75.152;2023-06-26T16:49:39;100457.97;;;27.62;49.44
56632;BME280;42503;39.928;-75.152;2023-06-26T16:59:41;100455.69;;;27.64;49.32
56632;BME280;42503;39.928;-75.152;2023-06-26T17:09:42;100432.03;;;27.65;49.74
56632;BME280;42503;39.928;-75.152;2023-06-26T17:19:44;100423.22;;;27.67;50.37
56632;BME280;42503;39.928;-75.152;2023-06-26T17:29:48;100410.00;;;27.67;50.34
56632;BME280;42503;39.928;-75.152;2023-06-26T17:39:52;100404.88;;;27.69;51.49
56632;BME280;42503;39.928;-75.152;2023-06-26T17:49:55;100393.00;;;27.72;52.20
56632;BME280;42503;39.928;-75.152;2023-06-26T17:59:56;100386.53;;;27.72;52.42
56632;BME280;42503;39.928;-75.152;2023-06-26T18:09:59;100391.13;;;27.76;53.13
56632;BME280;42503;39.928;-75.152;2023-06-26T18:20:01;100373.59;;;27.79;54.16
56632;BME280;42503;39.928;-75.152;2023-06-26T18:30:03;100353.22;;;27.82;54.44
56632;BME280;42503;39.928;-75.152;2023-06-26T18:40:06;100344.44;;;27.84;55.17
56632;BME280;42503;39.928;-75.152;2023-06-26T18:50:09;100336.81;;;27.84;57.30
56632;BME280;42503;39.928;-75.152;2023-06-26T19:00:11;100338.28;;;27.91;56.58
56632;BME280;42503;39.928;-75.152;2023-06-26T19:10:15;100335.94;;;27.93;55.77
56632;BME280;42503;39.928;-75.152;2023-06-26T19:20:20;100334.00;;;27.84;55.31
56632;BME280;42503;39.928;-75.152;2023-06-26T19:30:21;100331.50;;;27.92;55.13
56632;BME280;42503;39.928;-75.152;2023-06-26T19:40:25;100327.97;;;27.95;55.18
56632;BME280;42503;39.928;-75.152;2023-06-26T19:50:26;100318.84;;;27.98;54.95
56632;BME280;42503;39.928;-75.152;2023-06-26T20:00:30;100304.44;;;27.99;54.49
56632;BME280;42503;39.928;-75.152;2023-06-26T20:10:32;100279.97;;;28.00;54.59
56632;BME280;42503;39.928;-75.152;2023-06-26T20:20:34;100256.78;;;28.03;54.04
56632;BME280;42503;39.928;-75.152;2023-06-26T20:30:35;100257.59;;;28.03;54.60
56632;BME280;42503;39.928;-75.152;2023-06-26T20:40:37;100247.16;;;28.04;55.14
56632;BME280;42503;39.928;-75.152;2023-06-26T20:50:41;100252.91;;;28.07;54.81
56632;BME280;42503;39.928;-75.152;2023-06-26T21:00:43;100261.03;;;28.09;55.54
56632;BME280;42503;39.928;-75.152;2023-06-26T21:10:44;100251.41;;;28.10;54.93
56632;BME280;42503;39.928;-75.152;2023-06-26T21:20:48;100255.13;;;28.02;51.80
56632;BME280;42503;39.928;-75.152;2023-06-26T21:30:53;100245.00;;;27.89;49.08
56632;BME280;42503;39.928;-75.152;2023-06-26T21:40:54;100261.34;;;27.74;46.74
56632;BME280;42503;39.928;-75.152;2023-06-26T21:50:55;100257.97;;;27.60;46.55
56632;BME280;42503;39.928;-75.152;2023-06-26T22:00:57;100216.34;;;27.32;46.08
56632;BME280;42503;39.928;-75.152;2023-06-26T22:10:58;100243.38;;;27.46;46.10
56632;BME280;42503;39.928;-75.152;2023-06-26T22:20:59;100248.22;;;27.36;45.38
56632;BME280;42503;39.928;-75.152;2023-06-26T22:31:01;100235.53;;;27.30;45.13
56632;BME280;42503;39.928;-75.152;2023-06-26T22:41:05;100225.00;;;27.27;45.13
56632;BME280;42503;39.928;-75.152;2023-06-26T22:51:06;100213.00;;;27.18;44.81
56632;BME280;42503;39.928;-75.152;2023-06-26T23:01:08;100222.75;;;27.12;44.43
56632;BME280;42503;39.928;-75.152;2023-06-26T23:11:17;100222.94;;;27.07;44.47
56632;BME280;42503;39.928;-75.152;2023-06-26T23:21:21;100225.94;;;27.02;44.05
56632;BME280;42503;39.928;-75.152;2023-06-26T23:31:25;100245.59;;;27.02;43.43
56632;BME280;42503;39.928;-75.152;2023-06-26T23:41:28;100242.00;;;26.93;44.33
56632;BME280;42503;39.928;-75.152;2023-06-26T23:51:30;100251.66;;;26.83;43.89
